Terminal Aerodrome Forecast
Issued by NWS

Home | Current Version | Previous Version | Text Only | Print | Product List | Glossary On
Versions: 1 2 3 4 5 6 7 8 9 10 11 12 13 14 15 16 17 18 19
000
FTUS45 KRIW 301100
TAFCPR
TAF
KCPR 301127Z 3012/0112 25012G20KT P6SM SCT100
     FM301600 25015G25KT P6SM FEW050 SCT100
     FM302100 24014G22KT P6SM VCSH SCT060 BKN100
     FM010200 25007KT P6SM VCSH SCT050 BKN100=

USA.gov is the U.S. government's official web portal to all federal, state and local government web resources and services.